Time;durP1;ratioP1;P1;durP2;ratioP2;P2;SDS_P1;SDS_P2;PMS_P1;PMS_P2;Temp;Humidity;BMP_temperature;BMP_pressure;BME280_temperature;BME280_humidity;BME280_pressure;Samples;Min_cycle;Max_cycle;Signal;HPM_P1;HPM_P2
2021/03/22 00:00:24;;;;;;;2.00;1.00;;;22.70;41.10;;;;;;5065828;28;20082;-64
2021/03/22 00:02:50;;;;;;;2.10;1.10;;;22.70;40.60;;;;;;5064579;28;20058;-63
2021/03/22 00:05:16;;;;;;;1.98;0.93;;;22.70;40.60;;;;;;5063793;28;20036;-62
2021/03/22 00:07:42;;;;;;;1.67;0.90;;;22.70;40.60;;;;;;5064918;28;20090;-62
2021/03/22 00:10:08;;;;;;;1.67;1.00;;;22.70;40.60;;;;;;5063065;28;20809;-62
2021/03/22 00:12:34;;;;;;;1.80;0.98;;;22.70;40.60;;;;;;5063589;28;20436;-64
2021/03/22 00:15:00;;;;;;;2.40;1.00;;;22.60;40.60;;;;;;5063847;28;20108;-64
2021/03/22 00:17:26;;;;;;;2.42;1.00;;;22.60;40.60;;;;;;5063975;28;20043;-62
2021/03/22 00:19:52;;;;;;;3.25;1.15;;;22.60;40.60;;;;;;5046273;28;20124;-62
2021/03/22 00:22:18;;;;;;;2.75;1.00;;;22.60;40.60;;;;;;5062678;28;20100;-63
2021/03/22 00:24:43;;;;;;;1.70;0.88;;;22.60;40.60;;;;;;5063244;28;20037;-62
2021/03/22 00:27:09;;;;;;;1.77;1.00;;;22.60;40.60;;;;;;5063240;28;20038;-63
2021/03/22 00:29:35;;;;;;;2.83;1.10;;;22.60;40.60;;;;;;5062726;28;20368;-64
2021/03/22 00:32:01;;;;;;;2.47;1.00;;;22.60;40.60;;;;;;5041890;28;20116;-63
2021/03/22 00:34:26;;;;;;;2.33;1.10;;;22.60;40.60;;;;;;5062197;28;20505;-63
2021/03/22 00:36:54;;;;;;;1.42;0.90;;;22.60;40.70;;;;;;5060328;28;20098;-61
2021/03/22 00:39:20;;;;;;;2.33;1.08;;;22.60;40.70;;;;;;5064520;28;20040;-63
2021/03/22 00:41:46;;;;;;;1.65;0.90;;;22.60;40.60;;;;;;5062254;28;20483;-61
2021/03/22 00:44:11;;;;;;;1.48;1.00;;;22.60;40.70;;;;;;5062642;28;20107;-63
2021/03/22 00:46:37;;;;;;;1.63;0.93;;;22.60;40.70;;;;;;5062499;28;20406;-62
2021/03/22 00:49:02;;;;;;;1.55;0.90;;;22.60;41.20;;;;;;5046851;28;20129;-63
2021/03/22 00:51:28;;;;;;;1.65;0.90;;;22.50;40.60;;;;;;5063029;28;20033;-63
2021/03/22 00:53:54;;;;;;;1.45;0.90;;;22.50;40.60;;;;;;5060977;28;20037;-63
2021/03/22 00:56:19;;;;;;;2.47;0.90;;;22.50;40.60;;;;;;5064998;28;20546;-61
2021/03/22 00:58:45;;;;;;;2.00;0.90;;;22.50;40.60;;;;;;5061685;28;20037;-63
2021/03/22 01:01:11;;;;;;;2.20;0.80;;;22.50;40.70;;;;;;5059758;28;20036;-62
2021/03/22 01:03:37;;;;;;;1.90;0.93;;;22.50;40.70;;;;;;5062290;28;20526;-62
2021/03/22 01:06:05;;;;;;;2.22;1.00;;;22.50;40.60;;;;;;5062197;28;20048;-62
2021/03/22 01:08:34;;;;;;;1.53;0.80;;;22.50;40.70;;;;;;5068270;28;20463;-61
2021/03/22 01:11:01;;;;;;;2.10;1.10;;;22.40;40.70;;;;;;5048911;28;20024;-63
2021/03/22 01:13:43;;;;;;;1.35;0.80;;;22.50;40.70;;;;;;5066696;28;20298;-63
2021/03/22 01:16:10;;;;;;;1.92;0.90;;;22.40;40.60;;;;;;5062752;28;20030;-62
2021/03/22 01:18:46;;;;;;;1.52;0.93;;;22.40;40.60;;;;;;5066459;28;20037;-62
2021/03/22 01:21:17;;;;;;;1.80;0.90;;;22.40;40.60;;;;;;5065854;28;20020;-62
2021/03/22 01:23:43;;;;;;;1.83;0.90;;;22.40;40.60;;;;;;5066671;28;20103;-62
2021/03/22 01:26:12;;;;;;;1.65;0.95;;;22.40;40.60;;;;;;5067564;28;20043;-62
2021/03/22 01:28:38;;;;;;;1.55;0.82;;;22.40;40.70;;;;;;5066350;28;20108;-63
2021/03/22 01:31:04;;;;;;;1.48;0.80;;;22.40;40.70;;;;;;5066078;28;20064;-62
2021/03/22 01:33:43;;;;;;;1.75;0.70;;;22.40;40.70;;;;;;5066779;28;20686;-63
2021/03/22 01:36:16;;;;;;;2.58;0.95;;;22.40;40.70;;;;;;5063316;28;20048;-62
2021/03/22 01:38:42;;;;;;;2.20;1.00;;;22.40;40.70;;;;;;5068306;28;20126;-62
2021/03/22 01:41:34;;;;;;;1.48;0.90;;;22.40;40.70;;;;;;5071493;28;20474;-63
2021/03/22 01:44:29;;;;;;;1.75;0.90;;;22.40;40.70;;;;;;5040985;28;20070;-64
2021/03/22 01:47:11;;;;;;;2.80;0.98;;;22.30;40.70;;;;;;5066401;28;20111;-63
2021/03/22 01:49:44;;;;;;;2.00;1.00;;;22.40;40.70;;;;;;5065455;28;20071;-61
2021/03/22 01:52:11;;;;;;;1.02;0.80;;;22.40;40.70;;;;;;5062118;28;20021;-63
2021/03/22 01:54:37;;;;;;;1.65;0.90;;;22.30;40.70;;;;;;5076520;28;20033;-62
2021/03/22 01:57:31;;;;;;;1.33;0.82;;;22.30;40.70;;;;;;5066982;28;20029;-62
2021/03/22 02:00:06;;;;;;;1.00;0.75;;;22.30;40.70;;;;;;5038827;28;20040;-62
2021/03/22 02:02:34;;;;;;;0.70;0.60;;;22.30;40.70;;;;;;5047144;28;20090;-63
2021/03/22 02:05:00;;;;;;;1.50;0.80;;;22.30;40.70;;;;;;5066217;28;20050;-63
2021/03/22 02:07:27;;;;;;;1.33;0.80;;;22.30;40.80;;;;;;5063086;28;20039;-62
2021/03/22 02:09:53;;;;;;;1.80;0.88;;;22.30;40.70;;;;;;5067146;28;20021;-64
2021/03/22 02:12:20;;;;;;;2.00;0.98;;;22.30;40.70;;;;;;5066276;28;20108;-63
2021/03/22 02:14:47;;;;;;;1.30;0.80;;;22.30;40.70;;;;;;5064815;28;20067;-62
2021/03/22 02:17:33;;;;;;;1.55;0.90;;;22.30;40.70;;;;;;5047270;28;20074;-63
2021/03/22 02:20:28;;;;;;;1.38;0.80;;;22.30;40.80;;;;;;5066047;28;20119;-62
2021/03/22 02:23:25;;;;;;;1.13;0.90;;;22.30;40.80;;;;;;5049464;28;20119;-63
2021/03/22 02:26:20;;;;;;;1.77;0.80;;;22.30;40.70;;;;;;5065858;28;20626;-62
2021/03/22 02:29:22;;;;;;;1.55;0.90;;;22.30;40.70;;;;;;5061929;28;20032;-63
2021/03/22 02:31:53;;;;;;;1.35;0.70;;;22.30;40.80;;;;;;5066337;28;20143;-61
2021/03/22 02:34:25;;;;;;;0.95;0.70;;;22.30;40.80;;;;;;5065855;28;20538;-61
2021/03/22 02:37:12;;;;;;;1.58;0.80;;;22.30;40.80;;;;;;5064378;28;20032;-61
2021/03/22 02:39:57;;;;;;;1.10;0.80;;;22.20;40.70;;;;;;5065980;28;20032;-63
2021/03/22 02:42:26;;;;;;;2.03;0.90;;;22.20;40.70;;;;;;5064569;28;20166;-63
2021/03/22 02:44:52;;;;;;;2.20;0.93;;;22.20;40.80;;;;;;5064926;28;20064;-64
2021/03/22 02:47:36;;;;;;;2.45;0.90;;;22.20;40.80;;;;;;5046782;28;20037;-64
2021/03/22 02:50:11;;;;;;;2.05;0.90;;;22.20;40.80;;;;;;5065610;28;20051;-62
2021/03/22 02:53:08;;;;;;;0.93;0.70;;;22.20;40.80;;;;;;5066700;28;20028;-63
2021/03/22 02:55:58;;;;;;;1.38;0.90;;;22.20;40.80;;;;;;5012265;28;20056;-62
2021/03/22 02:58:57;;;;;;;1.70;0.88;;;22.20;40.80;;;;;;5062342;28;20020;-61
2021/03/22 03:01:46;;;;;;;1.45;0.80;;;22.20;40.80;;;;;;4976551;28;20041;-62
2021/03/22 03:04:15;;;;;;;1.42;0.70;;;22.20;40.80;;;;;;5064206;28;20455;-63
2021/03/22 03:07:02;;;;;;;1.90;0.80;;;22.20;40.80;;;;;;5060074;28;20032;-63
2021/03/22 03:09:31;;;;;;;1.13;0.80;;;22.20;40.80;;;;;;5067459;28;20056;-62
2021/03/22 03:12:07;;;;;;;;;;;22.20;40.90;;;;;;5066186;28;20143;-61
2021/03/22 03:14:33;;;;;;;1.35;0.82;;;22.20;40.80;;;;;;5061684;28;20382;-63
2021/03/22 03:16:58;;;;;;;1.27;0.80;;;22.20;40.80;;;;;;5064827;28;20055;-61
2021/03/22 03:19:24;;;;;;;1.20;0.80;;;22.20;40.80;;;;;;5066987;28;20112;-63
2021/03/22 03:21:49;;;;;;;1.50;0.90;;;22.20;40.90;;;;;;5045726;28;20032;-64
2021/03/22 03:24:15;;;;;;;1.45;0.80;;;22.20;40.80;;;;;;5063533;28;20635;-64
2021/03/22 03:26:41;;;;;;;1.83;0.90;;;22.10;40.80;;;;;;5064456;28;20043;-63
2021/03/22 03:29:07;;;;;;;1.60;0.90;;;22.20;40.90;;;;;;5064705;28;20032;-61
2021/03/22 03:31:34;;;;;;;1.65;0.80;;;22.10;40.80;;;;;;5063652;28;20036;-61
2021/03/22 03:34:00;;;;;;;2.17;0.80;;;22.10;40.80;;;;;;5064247;28;20043;-63
2021/03/22 03:36:27;;;;;;;2.03;0.88;;;22.10;40.80;;;;;;5063342;28;20028;-63
2021/03/22 03:38:52;;;;;;;1.83;0.90;;;22.10;40.90;;;;;;5064508;28;20505;-63
2021/03/22 03:41:18;;;;;;;1.13;0.90;;;22.10;40.80;;;;;;5045380;28;20071;-62
2021/03/22 03:43:44;;;;;;;1.20;0.70;;;22.10;40.90;;;;;;5064603;28;20028;-62
2021/03/22 03:46:09;;;;;;;1.48;0.85;;;22.10;40.90;;;;;;5066345;28;20028;-62
2021/03/22 03:48:35;;;;;;;1.77;0.90;;;22.10;40.90;;;;;;5066355;28;20056;-63
2021/03/22 03:51:03;;;;;;;1.65;0.90;;;22.10;40.90;;;;;;5062957;28;20553;-62
2021/03/22 03:53:29;;;;;;;1.52;0.80;;;22.10;40.90;;;;;;5064794;28;20036;-61
2021/03/22 03:55:56;;;;;;;1.67;0.80;;;22.10;40.90;;;;;;5045338;28;20554;-63
2021/03/22 03:58:22;;;;;;;1.15;0.70;;;22.10;40.90;;;;;;5045388;28;20032;-62
2021/03/22 04:00:49;;;;;;;1.50;0.80;;;22.10;40.90;;;;;;5057836;28;20530;-62
2021/03/22 04:03:26;;;;;;;1.15;0.60;;;22.10;40.90;;;;;;5060305;28;20538;-63
2021/03/22 04:06:03;;;;;;;1.98;0.90;;;22.10;40.90;;;;;;5043349;28;20487;-61
2021/03/22 04:08:30;;;;;;;1.27;0.70;;;22.10;40.90;;;;;;5061250;28;20094;-63
2021/03/22 04:10:56;;;;;;;1.70;0.80;;;22.10;40.90;;;;;;5063764;28;20017;-64
2021/03/22 04:13:23;;;;;;;2.15;1.00;;;22.10;40.90;;;;;;5064956;28;20094;-62
2021/03/22 04:15:49;;;;;;;1.60;0.73;;;22.10;40.90;;;;;;5067910;28;20726;-61
2021/03/22 04:18:15;;;;;;;1.58;0.88;;;22.10;40.90;;;;;;5057415;28;20037;-62
2021/03/22 04:20:41;;;;;;;1.88;1.00;;;22.10;40.90;;;;;;5061536;28;20032;-63
2021/03/22 04:23:06;;;;;;;2.38;0.80;;;22.10;41.00;;;;;;5052796;28;20099;-62
2021/03/22 04:25:32;;;;;;;2.40;0.90;;;22.10;41.00;;;;;;5045380;28;20455;-63
2021/03/22 04:27:58;;;;;;;1.63;0.90;;;22.00;40.90;;;;;;5045966;28;20044;-63
2021/03/22 04:30:24;;;;;;;0.98;0.68;;;22.00;40.90;;;;;;5059667;28;20025;-63
2021/03/22 04:32:50;;;;;;;1.20;0.70;;;22.10;40.90;;;;;;5064931;28;20032;-63
2021/03/22 04:35:18;;;;;;;1.23;0.70;;;22.10;41.00;;;;;;5068228;28;20505;-61
2021/03/22 04:37:44;;;;;;;1.17;0.80;;;22.00;40.90;;;;;;5062600;28;20132;-63
2021/03/22 04:40:11;;;;;;;2.10;0.90;;;22.00;40.90;;;;;;5063015;28;20104;-64
2021/03/22 04:42:36;;;;;;;1.10;0.60;;;22.10;41.00;;;;;;5063339;28;20039;-62
2021/03/22 04:45:04;;;;;;;1.70;0.80;;;22.00;40.90;;;;;;5062242;28;20037;-62
2021/03/22 04:47:30;;;;;;;0.98;0.70;;;22.00;40.90;;;;;;5063774;28;20439;-62
2021/03/22 04:49:55;;;;;;;1.17;0.82;;;22.00;40.90;;;;;;5063857;28;20039;-64
2021/03/22 04:52:21;;;;;;;1.40;0.80;;;22.00;40.90;;;;;;5062790;28;20040;-63
2021/03/22 04:54:46;;;;;;;1.25;0.70;;;22.00;40.90;;;;;;5073567;28;20094;-62
2021/03/22 04:57:34;;;;;;;1.80;0.88;;;22.00;40.90;;;;;;5064355;28;20383;-62
2021/03/22 05:00:00;;;;;;;1.35;0.80;;;22.10;41.00;;;;;;5052217;28;20036;-62
2021/03/22 05:02:25;;;;;;;1.35;0.73;;;22.00;41.00;;;;;;5061270;28;20040;-62
2021/03/22 05:04:51;;;;;;;1.33;0.70;;;22.00;40.90;;;;;;5066656;28;20040;-63
2021/03/22 05:07:18;;;;;;;1.83;0.90;;;22.00;41.00;;;;;;5061431;28;20057;-64
2021/03/22 05:09:45;;;;;;;1.05;0.70;;;22.00;40.90;;;;;;5058707;28;20060;-64
2021/03/22 05:12:11;;;;;;;0.88;0.68;;;22.00;40.90;;;;;;5056063;28;20033;-64
2021/03/22 05:14:37;;;;;;;1.45;0.75;;;22.00;40.90;;;;;;5060192;28;20090;-63
2021/03/22 05:17:04;;;;;;;1.05;0.70;;;22.00;40.90;;;;;;5060893;28;20029;-62
2021/03/22 05:19:31;;;;;;;2.03;1.05;;;22.00;41.00;;;;;;5062230;28;20032;-62
2021/03/22 05:21:58;;;;;;;0.98;0.68;;;22.00;40.90;;;;;;5061624;28;20527;-62
2021/03/22 05:24:24;;;;;;;1.20;0.75;;;22.00;40.90;;;;;;5060969;28;20337;-63
2021/03/22 05:26:51;;;;;;;1.75;0.80;;;22.00;41.00;;;;;;5052047;28;20032;-62
2021/03/22 05:29:18;;;;;;;1.33;0.80;;;22.00;40.90;;;;;;5048781;28;20127;-62
2021/03/22 05:31:43;;;;;;;0.90;0.60;;;22.00;41.00;;;;;;5069641;28;20032;-62
2021/03/22 05:34:09;;;;;;;1.63;0.80;;;22.00;41.00;;;;;;5066621;28;20028;-63
2021/03/22 05:36:35;;;;;;;1.90;0.90;;;22.00;41.00;;;;;;5036969;28;20123;-63
2021/03/22 05:39:00;;;;;;;2.00;0.90;;;22.00;41.00;;;;;;5067707;28;20392;-64
2021/03/22 05:41:29;;;;;;;1.75;0.85;;;22.00;41.00;;;;;;5059111;28;20036;-63
2021/03/22 05:43:54;;;;;;;1.25;0.70;;;22.00;41.00;;;;;;5062691;28;20036;-62
2021/03/22 05:46:44;;;;;;;2.13;0.90;;;22.00;41.00;;;;;;5059390;28;20053;-62
2021/03/22 05:49:18;;;;;;;;;;;22.00;41.00;;;;;;5071651;28;20063;-62
2021/03/22 05:52:25;;;;;;;0.93;0.75;;;22.00;41.00;;;;;;5072860;28;20269;-62
2021/03/22 05:55:15;;;;;;;1.10;0.80;;;22.00;41.00;;;;;;5067768;28;20048;-62
2021/03/22 05:58:20;;;;;;;0.77;0.70;;;22.00;41.00;;;;;;5067413;28;20028;-62
2021/03/22 06:01:15;;;;;;;1.00;0.73;;;22.00;41.10;;;;;;5063980;28;20040;-63
2021/03/22 06:04:31;;;;;;;1.02;0.70;;;22.00;41.10;;;;;;5063928;28;20033;-63
2021/03/22 06:06:57;;;;;;;2.25;0.80;;;22.00;41.10;;;;;;5012277;28;20052;-62
2021/03/22 06:09:44;;;;;;;1.98;0.85;;;22.00;41.20;;;;;;5079159;28;20052;-61
2021/03/22 06:12:09;;;;;;;1.45;0.73;;;22.00;41.20;;;;;;5053973;28;20024;-61
2021/03/22 06:15:19;;;;;;;2.53;0.98;;;22.00;41.20;;;;;;5065363;28;20116;-61
2021/03/22 06:18:06;;;;;;;1.50;0.80;;;22.00;41.80;;;;;;5050691;28;20107;-62
2021/03/22 06:20:36;;;;;;;2.45;0.85;;;22.00;41.20;;;;;;5064850;28;20024;-62
2021/03/22 06:23:25;;;;;;;1.80;1.05;;;22.00;41.20;;;;;;5062672;28;20119;-61
2021/03/22 06:25:51;;;;;;;1.50;0.85;;;22.00;41.20;;;;;;5057465;28;20044;-62
2021/03/22 06:28:22;;;;;;;1.65;0.80;;;22.00;41.30;;;;;;5065670;28;20045;-62
2021/03/22 06:31:08;;;;;;;1.50;0.80;;;22.00;41.30;;;;;;5063821;28;20118;-63
2021/03/22 06:33:44;;;;;;;2.15;1.00;;;22.00;41.20;;;;;;5061912;28;20021;-63
2021/03/22 06:36:13;;;;;;;1.55;0.80;;;22.00;41.30;;;;;;5063182;28;20344;-64
2021/03/22 06:38:39;;;;;;;;;;;22.00;41.30;;;;;;5046555;28;20119;-63
2021/03/22 06:41:29;;;;;;;2.53;1.10;;;22.00;41.30;;;;;;5064762;28;20006;-68
2021/03/22 06:43:56;;;;;;;2.08;0.98;;;22.00;41.30;;;;;;5040639;28;20060;-68
2021/03/22 06:46:24;;;;;;;3.38;1.15;;;22.00;41.30;;;;;;5061395;28;20612;-68
2021/03/22 06:48:59;;;;;;;2.72;1.23;;;22.00;41.50;;;;;;5065481;28;20029;-67
2021/03/22 06:51:24;;;;;;;2.28;1.10;;;22.20;41.50;;;;;;5079646;28;20039;-68
2021/03/22 06:54:01;;;;;;;3.22;1.40;;;22.20;41.40;;;;;;5064442;28;20036;-68
2021/03/22 06:56:38;;;;;;;2.58;1.33;;;22.30;41.20;;;;;;5062522;28;20115;-67
2021/03/22 06:59:11;;;;;;;2.50;1.17;;;22.50;41.10;;;;;;5039491;28;20063;-67
2021/03/22 07:01:38;;;;;;;2.63;1.10;;;22.60;40.90;;;;;;5059204;28;20110;-68
2021/03/22 07:04:15;;;;;;;3.20;1.30;;;22.70;40.60;;;;;;5065740;28;20736;-68
2021/03/22 07:06:41;;;;;;;3.33;1.30;;;22.90;40.40;;;;;;5062115;28;20036;-67
2021/03/22 07:09:06;;;;;;;3.83;1.48;;;23.00;40.30;;;;;;5049176;28;20044;-62
2021/03/22 07:11:37;;;;;;;3.10;1.30;;;23.10;40.00;;;;;;5065334;28;20491;-63
2021/03/22 07:14:04;;;;;;;2.42;1.17;;;23.10;39.80;;;;;;5064289;28;20127;-63
2021/03/22 07:16:32;;;;;;;2.95;1.10;;;23.00;39.90;;;;;;5044203;28;20479;-67
2021/03/22 07:19:17;;;;;;;2.45;1.30;;;23.00;40.00;;;;;;5062233;28;20029;-65
2021/03/22 07:21:57;;;;;;;2.80;1.10;;;23.00;40.10;;;;;;5065452;28;20109;-65
2021/03/22 07:24:43;;;;;;;2.95;1.20;;;23.00;40.10;;;;;;5064858;28;20039;-64
2021/03/22 07:27:25;;;;;;;2.25;1.00;;;22.90;40.10;;;;;;5045080;28;20045;-65
2021/03/22 07:30:12;;;;;;;2.33;1.15;;;22.90;40.10;;;;;;5065407;28;20116;-64
2021/03/22 07:33:10;;;;;;;2.42;1.08;;;22.90;40.10;;;;;;5051113;28;20052;-67
2021/03/22 07:36:03;;;;;;;3.83;1.30;;;22.90;40.10;;;;;;5060885;28;20194;-63
2021/03/22 07:38:48;;;;;;;2.97;1.40;;;22.90;40.10;;;;;;5064924;28;20036;-63
2021/03/22 07:41:56;;;;;;;2.25;1.10;;;22.90;40.10;;;;;;5065482;28;20040;-62
2021/03/22 07:44:49;;;;;;;3.22;1.30;;;22.90;40.20;;;;;;5058863;28;20040;-64
2021/03/22 07:47:15;;;;;;;2.42;1.20;;;22.90;40.10;;;;;;5045508;28;20051;-62
2021/03/22 07:50:11;;;;;;;3.00;1.27;;;23.00;40.20;;;;;;5065485;28;20039;-64
2021/03/22 07:52:45;;;;;;;2.65;1.20;;;23.00;40.20;;;;;;5065329;28;20531;-65
2021/03/22 07:55:26;;;;;;;3.10;1.10;;;23.00;40.20;;;;;;5070069;28;20029;-63
2021/03/22 07:58:29;;;;;;;2.58;1.10;;;23.00;40.30;;;;;;5067265;28;20055;-63
2021/03/22 08:01:08;;;;;;;2.83;1.25;;;23.00;40.30;;;;;;5055289;28;20083;-65
2021/03/22 08:03:59;;;;;;;3.42;1.13;;;23.00;40.30;;;;;;5062144;28;20492;-62
2021/03/22 08:07:05;;;;;;;2.08;1.15;;;23.00;40.30;;;;;;5065587;28;20036;-62
2021/03/22 08:09:57;;;;;;;2.65;1.30;;;23.00;40.20;;;;;;5066463;28;20116;-63
2021/03/22 08:12:37;;;;;;;4.03;1.20;;;23.00;40.20;;;;;;5065620;28;20112;-64
2021/03/22 08:15:26;;;;;;;1.92;1.15;;;23.00;40.20;;;;;;5062809;28;20527;-62
2021/03/22 08:18:10;;;;;;;;;;;23.00;40.20;;;;;;5065331;28;20108;-63
2021/03/22 08:20:56;;;;;;;2.85;1.20;;;23.00;40.10;;;;;;5064371;28;20313;-63
2021/03/22 08:23:49;;;;;;;3.42;1.30;;;23.10;40.10;;;;;;5062931;28;20130;-65
2021/03/22 08:26:32;;;;;;;3.15;1.30;;;23.10;40.10;;;;;;5061696;28;20431;-65
2021/03/22 08:29:19;;;;;;;2.75;1.05;;;23.10;40.10;;;;;;5067500;28;20021;-64
2021/03/22 08:32:03;;;;;;;5.47;1.27;;;23.10;40.10;;;;;;5063171;28;20075;-62
2021/03/22 08:34:43;;;;;;;2.20;1.10;;;23.10;40.10;;;;;;5069115;28;20032;-66
2021/03/22 08:37:22;;;;;;;3.17;1.20;;;23.10;40.20;;;;;;5064791;28;20554;-62
2021/03/22 08:40:02;;;;;;;3.00;1.20;;;23.10;40.20;;;;;;5066374;28;20145;-64
2021/03/22 08:42:32;;;;;;;2.42;1.10;;;23.10;40.10;;;;;;5064298;28;20075;-64
2021/03/22 08:45:03;;;;;;;2.15;0.90;;;23.20;40.10;;;;;;5060757;28;20052;-66
2021/03/22 08:47:39;;;;;;;3.13;1.20;;;23.10;40.10;;;;;;5061247;28;20040;-67
2021/03/22 08:50:16;;;;;;;2.65;1.10;;;23.10;40.10;;;;;;5066414;28;20029;-63
2021/03/22 08:52:51;;;;;;;3.83;1.30;;;23.10;40.20;;;;;;5067201;28;20426;-64
2021/03/22 08:55:20;;;;;;;2.67;1.20;;;23.10;40.20;;;;;;5070274;28;20036;-66
2021/03/22 08:58:12;;;;;;;3.22;1.25;;;23.20;40.20;;;;;;5064912;28;20060;-63
2021/03/22 09:00:46;;;;;;;2.22;1.10;;;23.20;40.20;;;;;;5059458;28;20033;-65
2021/03/22 09:03:15;;;;;;;3.08;1.25;;;23.20;40.10;;;;;;5054962;28;20510;-63
2021/03/22 09:06:02;;;;;;;2.53;1.20;;;23.20;40.10;;;;;;5045571;28;20364;-61
2021/03/22 09:08:29;;;;;;;2.63;1.17;;;23.20;40.10;;;;;;5065162;28;20029;-68
2021/03/22 09:10:55;;;;;;;3.13;1.33;;;23.20;40.10;;;;;;5063695;28;20024;-68
2021/03/22 09:13:36;;;;;;;2.70;1.00;;;23.30;40.20;;;;;;5063876;28;20379;-60
2021/03/22 09:16:11;;;;;;;2.45;1.00;;;23.30;40.20;;;;;;5063156;28;20711;-60
2021/03/22 09:19:25;;;;;;;3.15;1.45;;;23.30;40.20;;;;;;5062345;28;20028;-57
2021/03/22 09:22:11;;;;;;;2.65;1.02;;;23.30;40.10;;;;;;5055867;28;20025;-61
2021/03/22 09:27:04;;;;;;;2.97;1.10;;;23.30;40.10;;;;;;5057429;28;20037;-60
2021/03/22 09:29:41;;;;;;;2.40;1.20;;;23.30;40.00;;;;;;5067130;28;20040;-63
2021/03/22 09:32:28;;;;;;;3.55;1.40;;;23.30;40.00;;;;;;5044821;28;20135;-61
2021/03/22 09:35:14;;;;;;;2.75;1.10;;;23.40;40.10;;;;;;5058202;28;20028;-64
2021/03/22 09:38:20;;;;;;;3.97;1.38;;;23.30;40.00;;;;;;5047703;28;20036;-62
2021/03/22 09:40:49;;;;;;;2.42;1.05;;;23.40;40.10;;;;;;5049118;28;20068;-60
2021/03/22 09:43:18;;;;;;;2.65;1.15;;;23.40;40.00;;;;;;5066981;28;20032;-60
2021/03/22 09:45:56;;;;;;;2.10;1.05;;;23.40;40.00;;;;;;5066141;28;20423;-62
2021/03/22 09:48:27;;;;;;;2.60;1.10;;;23.40;40.00;;;;;;5067509;28;20028;-61
2021/03/22 09:51:03;;;;;;;2.45;1.30;;;23.30;40.00;;;;;;5068174;28;20107;-62
2021/03/22 09:53:56;;;;;;;3.20;1.10;;;23.40;40.00;;;;;;5046497;28;20029;-64
2021/03/22 09:56:36;;;;;;;3.20;1.35;;;23.40;40.00;;;;;;5072847;28;20482;-62
2021/03/22 09:59:33;;;;;;;2.13;1.00;;;23.40;39.90;;;;;;5043172;28;20032;-62
2021/03/22 10:02:20;;;;;;;2.28;1.35;;;23.40;40.00;;;;;;5059893;28;20131;-64
2021/03/22 10:05:16;;;;;;;1.73;1.00;;;23.40;40.50;;;;;;5063898;28;20136;-72
2021/03/22 10:07:49;;;;;;;2.22;1.00;;;23.40;40.50;;;;;;5054519;28;20090;-71
2021/03/22 10:10:15;;;;;;;3.50;1.20;;;23.40;40.00;;;;;;5063117;28;20035;-69
2021/03/22 10:12:48;;;;;;;2.60;1.10;;;23.40;40.00;;;;;;5070012;28;20029;-72
2021/03/22 10:15:14;;;;;;;2.70;1.00;;;23.40;40.00;;;;;;5068016;28;20052;-72
2021/03/22 10:17:57;;;;;;;1.90;1.10;;;23.40;40.00;;;;;;5067484;28;20947;-71
2021/03/22 10:20:45;;;;;;;2.15;1.10;;;23.50;40.60;;;;;;5049499;28;20028;-70
2021/03/22 10:23:35;;;;;;;2.38;1.20;;;23.50;40.10;;;;;;5049590;28;20031;-69
2021/03/22 10:26:21;;;;;;;1.83;0.90;;;23.50;40.10;;;;;;5066944;28;20116;-71
2021/03/22 10:28:47;;;;;;;2.25;1.00;;;23.50;40.20;;;;;;5046759;28;20116;-70
2021/03/22 10:31:18;;;;;;;4.13;1.50;;;23.60;40.20;;;;;;5065763;28;20446;-71
2021/03/22 10:34:01;;;;;;;2.70;1.08;;;23.50;40.10;;;;;;5063233;28;20133;-70
2021/03/22 10:36:31;;;;;;;3.08;1.20;;;23.60;40.70;;;;;;5062933;28;20542;-71
2021/03/22 10:38:58;;;;;;;2.10;1.00;;;23.60;40.20;;;;;;5066741;28;20450;-72
2021/03/22 10:41:26;;;;;;;2.03;1.00;;;23.60;40.20;;;;;;5068115;28;20063;-72
2021/03/22 10:43:57;;;;;;;3.45;1.05;;;23.60;40.20;;;;;;5068443;28;20482;-72
2021/03/22 10:46:26;;;;;;;1.75;0.90;;;23.60;40.20;;;;;;5050163;28;20098;-72
2021/03/22 10:49:03;;;;;;;2.53;0.98;;;23.60;40.20;;;;;;5050133;28;20033;-70
2021/03/22 10:51:42;;;;;;;2.60;1.45;;;23.60;40.10;;;;;;5047632;28;20093;-71
2021/03/22 10:54:10;;;;;;;;;;;23.60;40.10;;;;;;5054122;28;20105;-69
2021/03/22 10:56:41;;;;;;;1.67;1.00;;;23.60;40.20;;;;;;5064926;28;19968;-69
2021/03/22 10:59:19;;;;;;;3.13;1.00;;;23.60;40.10;;;;;;5061627;28;20739;-61
2021/03/22 11:01:45;;;;;;;2.10;0.90;;;23.60;40.20;;;;;;5059888;28;20032;-64
2021/03/22 11:04:18;;;;;;;2.00;0.90;;;23.70;40.10;;;;;;5058243;28;20036;-63
2021/03/22 11:06:46;;;;;;;1.70;0.95;;;23.60;40.10;;;;;;5064444;28;20025;-62
2021/03/22 11:09:25;;;;;;;2.00;0.90;;;23.70;40.10;;;;;;5062227;28;20039;-61
2021/03/22 11:11:52;;;;;;;2.03;1.10;;;23.70;40.10;;;;;;5061763;28;20032;-60
2021/03/22 11:14:21;;;;;;;2.65;1.20;;;23.70;40.10;;;;;;5062442;28;20329;-60
2021/03/22 11:16:47;;;;;;;2.23;1.00;;;23.70;40.20;;;;;;5063148;28;20039;-60
2021/03/22 11:19:25;;;;;;;3.85;1.10;;;23.70;40.20;;;;;;5065863;28;20039;-61
2021/03/22 11:21:55;;;;;;;2.45;1.00;;;23.70;40.20;;;;;;5062409;28;20032;-62
2021/03/22 11:24:55;;;;;;;2.05;1.00;;;23.70;40.20;;;;;;5066148;28;20032;-61
2021/03/22 11:27:24;;;;;;;2.42;0.85;;;23.70;40.20;;;;;;5021997;28;20036;-61
2021/03/22 11:30:04;;;;;;;4.30;1.10;;;23.70;40.20;;;;;;5065420;28;20041;-62
2021/03/22 11:32:34;;;;;;;7.13;1.17;;;23.70;40.20;;;;;;5052153;28;20052;-61
2021/03/22 11:35:21;;;;;;;2.08;0.93;;;23.70;40.20;;;;;;5045204;28;20029;-62
2021/03/22 11:37:56;;;;;;;2.55;1.00;;;23.70;40.20;;;;;;5062182;28;20155;-63
2021/03/22 11:40:26;;;;;;;3.00;1.00;;;23.70;40.20;;;;;;5067850;28;20028;-58
2021/03/22 11:42:55;;;;;;;5.00;1.10;;;23.70;40.20;;;;;;5066273;28;20740;-61
2021/03/22 11:45:28;;;;;;;2.33;1.20;;;23.70;40.20;;;;;;5065096;28;20370;-64
2021/03/22 11:47:54;;;;;;;2.65;1.30;;;23.80;40.20;;;;;;5055244;28;20067;-62
2021/03/22 11:50:25;;;;;;;2.72;1.40;;;23.80;40.20;;;;;;5056235;28;20059;-61
2021/03/22 11:53:07;;;;;;;2.90;1.20;;;23.80;40.30;;;;;;5067977;28;20034;-61
2021/03/22 11:55:34;;;;;;;3.40;1.20;;;23.80;40.30;;;;;;5071973;28;20056;-62
2021/03/22 11:58:01;;;;;;;2.33;1.10;;;23.80;40.30;;;;;;5062075;28;20025;-62
2021/03/22 12:00:31;;;;;;;3.17;1.25;;;23.80;40.30;;;;;;5062320;28;20040;-61
2021/03/22 12:03:08;;;;;;;2.28;1.00;;;23.80;40.30;;;;;;5059582;28;20478;-61
2021/03/22 12:05:42;;;;;;;2.35;1.10;;;23.80;40.30;;;;;;5066129;28;20079;-59
2021/03/22 12:08:30;;;;;;;3.30;1.10;;;23.80;40.30;;;;;;5064182;28;20128;-60
2021/03/22 12:10:55;;;;;;;2.00;1.17;;;23.80;40.30;;;;;;5065558;28;20024;-62
2021/03/22 12:13:21;;;;;;;3.40;1.10;;;23.80;40.30;;;;;;5061093;28;20517;-62
2021/03/22 12:15:46;;;;;;;2.65;1.10;;;23.80;40.30;;;;;;5043528;28;20086;-63
2021/03/22 12:18:27;;;;;;;2.22;1.10;;;23.80;40.80;;;;;;5044734;28;20085;-61
2021/03/22 12:20:53;;;;;;;2.38;1.35;;;23.80;40.30;;;;;;5069471;28;20596;-64
2021/03/22 12:23:19;;;;;;;3.33;1.27;;;23.80;40.30;;;;;;5064408;28;20043;-62
2021/03/22 12:25:45;;;;;;;2.72;1.25;;;23.80;40.20;;;;;;5046469;28;20025;-63
2021/03/22 12:28:10;;;;;;;2.28;1.20;;;23.80;40.30;;;;;;5065476;28;20068;-63
2021/03/22 12:30:36;;;;;;;2.13;1.23;;;23.90;40.30;;;;;;5063379;28;20052;-61
2021/03/22 12:33:04;;;;;;;1.92;1.00;;;23.90;40.30;;;;;;5046158;28;20108;-60
2021/03/22 12:35:37;;;;;;;2.00;1.00;;;23.90;40.30;;;;;;5064713;28;20025;-62
2021/03/22 12:38:04;;;;;;;2.75;1.30;;;23.90;40.30;;;;;;5060426;28;20029;-63
2021/03/22 12:40:30;;;;;;;2.90;1.20;;;23.90;40.30;;;;;;5051449;28;20370;-61
2021/03/22 12:42:56;;;;;;;2.03;1.00;;;23.90;40.20;;;;;;5062718;28;20115;-61
2021/03/22 12:45:31;;;;;;;2.20;1.10;;;23.90;40.20;;;;;;5063910;28;20024;-64
2021/03/22 12:47:58;;;;;;;2.65;1.23;;;23.90;40.20;;;;;;5048906;28;20032;-63
2021/03/22 12:50:26;;;;;;;1.92;1.00;;;23.90;40.30;;;;;;5065265;28;20020;-61
2021/03/22 12:52:53;;;;;;;2.42;1.20;;;23.90;40.20;;;;;;5061940;28;20055;-60
2021/03/22 12:55:21;;;;;;;2.33;1.25;;;23.90;40.20;;;;;;5063781;28;20040;-60
2021/03/22 12:57:48;;;;;;;3.53;1.33;;;23.90;40.20;;;;;;5059537;28;20024;-62
2021/03/22 13:00:15;;;;;;;2.30;1.00;;;23.90;40.20;;;;;;5059275;28;20044;-64
2021/03/22 13:02:44;;;;;;;2.17;1.10;;;23.90;40.20;;;;;;5038242;28;20025;-60
2021/03/22 13:05:26;;;;;;;2.30;1.25;;;23.90;40.20;;;;;;5051263;28;20125;-63
2021/03/22 13:07:53;;;;;;;1.88;1.00;;;23.90;40.20;;;;;;5057191;28;20032;-62
2021/03/22 13:10:24;;;;;;;2.88;1.30;;;23.90;40.20;;;;;;5065832;28;20113;-62
2021/03/22 13:12:50;;;;;;;2.13;1.10;;;23.90;40.20;;;;;;5067092;28;20443;-63
2021/03/22 13:15:35;;;;;;;1.88;1.00;;;23.90;40.20;;;;;;5068243;28;20035;-63
2021/03/22 13:18:09;;;;;;;3.40;1.25;;;23.90;40.20;;;;;;5045734;28;20054;-60
2021/03/22 13:20:34;;;;;;;3.13;1.20;;;23.90;40.20;;;;;;5063219;28;20032;-61
2021/03/22 13:23:00;;;;;;;3.13;1.20;;;23.90;40.30;;;;;;5046884;28;20033;-61
2021/03/22 13:25:26;;;;;;;2.17;0.98;;;23.90;40.30;;;;;;5060635;28;20042;-64